sensor_id;sensor_type;location;lat;lon;timestamp;P1;durP1;ratioP1;P2;durP2;ratioP2
26696;SDS011;14312;52.614;13.496;2022-08-16T00:00:13;5.40;;;5.00;;
26696;SDS011;14312;52.614;13.496;2022-08-16T00:03:01;6.10;;;5.60;;
26696;SDS011;14312;52.614;13.496;2022-08-16T00:05:47;5.28;;;4.88;;
26696;SDS011;14312;52.614;13.496;2022-08-16T00:08:33;5.97;;;5.47;;
26696;SDS011;14312;52.614;13.496;2022-08-16T00:11:20;5.90;;;5.30;;
26696;SDS011;14312;52.614;13.496;2022-08-16T00:14:07;6.05;;;5.55;;
26696;SDS011;14312;52.614;13.496;2022-08-16T00:16:56;6.90;;;6.30;;
26696;SDS011;14312;52.614;13.496;2022-08-16T00:19:43;7.10;;;6.60;;
26696;SDS011;14312;52.614;13.496;2022-08-16T00:22:29;7.60;;;7.03;;
26696;SDS011;14312;52.614;13.496;2022-08-16T00:25:16;8.25;;;7.53;;
26696;SDS011;14312;52.614;13.496;2022-08-16T00:28:03;7.82;;;7.13;;
26696;SDS011;14312;52.614;13.496;2022-08-16T00:30:50;7.47;;;6.88;;
26696;SDS011;14312;52.614;13.496;2022-08-16T00:33:36;7.53;;;6.85;;
26696;SDS011;14312;52.614;13.496;2022-08-16T00:36:22;7.88;;;7.20;;
26696;SDS011;14312;52.614;13.496;2022-08-16T00:39:07;7.57;;;6.88;;
26696;SDS011;14312;52.614;13.496;2022-08-16T00:41:53;8.18;;;7.55;;
26696;SDS011;14312;52.614;13.496;2022-08-16T00:44:40;8.80;;;8.07;;
26696;SDS011;14312;52.614;13.496;2022-08-16T00:47:35;7.55;;;6.95;;
26696;SDS011;14312;52.614;13.496;2022-08-16T00:50:25;8.80;;;8.05;;
26696;SDS011;14312;52.614;13.496;2022-08-16T00:53:14;9.00;;;8.20;;
26696;SDS011;14312;52.614;13.496;2022-08-16T00:56:04;8.82;;;8.02;;
26696;SDS011;14312;52.614;13.496;2022-08-16T00:58:54;8.52;;;7.80;;
26696;SDS011;14312;52.614;13.496;2022-08-16T01:01:40;8.73;;;8.02;;
26696;SDS011;14312;52.614;13.496;2022-08-16T01:04:26;8.30;;;7.50;;
26696;SDS011;14312;52.614;13.496;2022-08-16T01:07:13;7.50;;;6.90;;
26696;SDS011;14312;52.614;13.496;2022-08-16T01:09:59;6.88;;;6.28;;
26696;SDS011;14312;52.614;13.496;2022-08-16T01:12:45;6.05;;;5.55;;
26696;SDS011;14312;52.614;13.496;2022-08-16T01:15:32;5.57;;;5.18;;
26696;SDS011;14312;52.614;13.496;2022-08-16T01:18:21;5.55;;;5.05;;
26696;SDS011;14312;52.614;13.496;2022-08-16T01:21:23;5.88;;;5.43;;
26696;SDS011;14312;52.614;13.496;2022-08-16T01:24:18;5.32;;;4.93;;
26696;SDS011;14312;52.614;13.496;2022-08-16T01:33:01;5.28;;;4.88;;
26696;SDS011;14312;52.614;13.496;2022-08-16T01:35:50;5.63;;;5.13;;
26696;SDS011;14312;52.614;13.496;2022-08-16T01:38:42;6.45;;;5.85;;
26696;SDS011;14312;52.614;13.496;2022-08-16T01:41:30;6.07;;;5.57;;
26696;SDS011;14312;52.614;13.496;2022-08-16T01:44:16;5.75;;;5.25;;
26696;SDS011;14312;52.614;13.496;2022-08-16T01:47:02;5.68;;;5.28;;
26696;SDS011;14312;52.614;13.496;2022-08-16T01:49:48;7.00;;;6.40;;
26696;SDS011;14312;52.614;13.496;2022-08-16T01:52:34;7.10;;;6.60;;
26696;SDS011;14312;52.614;13.496;2022-08-16T01:55:21;7.28;;;6.68;;
26696;SDS011;14312;52.614;13.496;2022-08-16T01:58:07;6.97;;;6.38;;
26696;SDS011;14312;52.614;13.496;2022-08-16T02:00:53;7.38;;;6.78;;
26696;SDS011;14312;52.614;13.496;2022-08-16T02:03:39;7.18;;;6.60;;
26696;SDS011;14312;52.614;13.496;2022-08-16T02:06:25;6.53;;;6.03;;
26696;SDS011;14312;52.614;13.496;2022-08-16T02:09:12;7.25;;;6.65;;
26696;SDS011;14312;52.614;13.496;2022-08-16T02:12:00;7.03;;;6.47;;
26696;SDS011;14312;52.614;13.496;2022-08-16T02:14:46;6.60;;;6.10;;
26696;SDS011;14312;52.614;13.496;2022-08-16T02:17:32;5.10;;;4.70;;
26696;SDS011;14312;52.614;13.496;2022-08-16T02:20:18;5.25;;;4.85;;
26696;SDS011;14312;52.614;13.496;2022-08-16T02:23:06;4.72;;;4.32;;
26696;SDS011;14312;52.614;13.496;2022-08-16T02:25:52;5.88;;;5.38;;
26696;SDS011;14312;52.614;13.496;2022-08-16T02:28:38;7.07;;;5.72;;
26696;SDS011;14312;52.614;13.496;2022-08-16T02:31:24;7.00;;;6.43;;
26696;SDS011;14312;52.614;13.496;2022-08-16T02:34:10;7.10;;;6.40;;
26696;SDS011;14312;52.614;13.496;2022-08-16T02:36:56;6.80;;;6.20;;
26696;SDS011;14312;52.614;13.496;2022-08-16T02:39:42;6.43;;;5.93;;
26696;SDS011;14312;52.614;13.496;2022-08-16T02:42:28;5.93;;;5.43;;
26696;SDS011;14312;52.614;13.496;2022-08-16T02:45:14;4.40;;;4.10;;
26696;SDS011;14312;52.614;13.496;2022-08-16T02:48:01;4.25;;;2.88;;
26696;SDS011;14312;52.614;13.496;2022-08-16T02:50:47;2.65;;;2.45;;
26696;SDS011;14312;52.614;13.496;2022-08-16T02:53:34;3.38;;;2.85;;
26696;SDS011;14312;52.614;13.496;2022-08-16T02:56:23;3.67;;;3.40;;
26696;SDS011;14312;52.614;13.496;2022-08-16T02:59:09;3.00;;;2.80;;
26696;SDS011;14312;52.614;13.496;2022-08-16T03:01:56;3.40;;;3.10;;
26696;SDS011;14312;52.614;13.496;2022-08-16T03:04:42;3.20;;;2.83;;
26696;SDS011;14312;52.614;13.496;2022-08-16T03:07:28;2.95;;;2.75;;
26696;SDS011;14312;52.614;13.496;2022-08-16T03:10:14;3.25;;;3.03;;
26696;SDS011;14312;52.614;13.496;2022-08-16T03:13:00;3.47;;;3.20;;
26696;SDS011;14312;52.614;13.496;2022-08-16T03:15:46;4.05;;;3.75;;
26696;SDS011;14312;52.614;13.496;2022-08-16T03:18:32;4.15;;;3.85;;
26696;SDS011;14312;52.614;13.496;2022-08-16T03:21:19;4.15;;;3.70;;
26696;SDS011;14312;52.614;13.496;2022-08-16T03:24:06;3.85;;;3.55;;
26696;SDS011;14312;52.614;13.496;2022-08-16T03:26:53;4.57;;;4.18;;
26696;SDS011;14312;52.614;13.496;2022-08-16T03:29:39;3.97;;;3.58;;
26696;SDS011;14312;52.614;13.496;2022-08-16T03:32:25;4.63;;;4.22;;
26696;SDS011;14312;52.614;13.496;2022-08-16T03:35:11;4.20;;;3.80;;
26696;SDS011;14312;52.614;13.496;2022-08-16T03:37:58;3.58;;;3.28;;
26696;SDS011;14312;52.614;13.496;2022-08-16T03:40:46;3.05;;;2.58;;
26696;SDS011;14312;52.614;13.496;2022-08-16T03:43:32;2.65;;;2.08;;
26696;SDS011;14312;52.614;13.496;2022-08-16T03:46:18;1.95;;;1.85;;
26696;SDS011;14312;52.614;13.496;2022-08-16T03:49:06;2.70;;;2.50;;
26696;SDS011;14312;52.614;13.496;2022-08-16T03:51:56;2.42;;;2.33;;
26696;SDS011;14312;52.614;13.496;2022-08-16T03:54:42;1.95;;;1.85;;
26696;SDS011;14312;52.614;13.496;2022-08-16T03:57:28;2.45;;;2.25;;
26696;SDS011;14312;52.614;13.496;2022-08-16T04:00:17;2.08;;;1.98;;
26696;SDS011;14312;52.614;13.496;2022-08-16T04:03:06;1.90;;;1.80;;
26696;SDS011;14312;52.614;13.496;2022-08-16T04:05:52;2.15;;;2.05;;
26696;SDS011;14312;52.614;13.496;2022-08-16T04:08:37;2.38;;;2.22;;
26696;SDS011;14312;52.614;13.496;2022-08-16T04:11:23;2.40;;;2.30;;
26696;SDS011;14312;52.614;13.496;2022-08-16T04:14:09;2.72;;;2.53;;
26696;SDS011;14312;52.614;13.496;2022-08-16T04:16:55;3.60;;;3.30;;
26696;SDS011;14312;52.614;13.496;2022-08-16T04:19:41;3.90;;;3.60;;
26696;SDS011;14312;52.614;13.496;2022-08-16T04:22:29;3.53;;;3.28;;
26696;SDS011;14312;52.614;13.496;2022-08-16T04:25:15;4.10;;;3.78;;
26696;SDS011;14312;52.614;13.496;2022-08-16T04:28:01;4.13;;;3.85;;
26696;SDS011;14312;52.614;13.496;2022-08-16T04:30:48;4.22;;;3.92;;
26696;SDS011;14312;52.614;13.496;2022-08-16T04:33:34;4.75;;;4.15;;
26696;SDS011;14312;52.614;13.496;2022-08-16T04:36:19;6.40;;;4.60;;
26696;SDS011;14312;52.614;13.496;2022-08-16T04:39:05;5.10;;;4.38;;
26696;SDS011;14312;52.614;13.496;2022-08-16T04:41:51;4.38;;;4.07;;
26696;SDS011;14312;52.614;13.496;2022-08-16T04:44:37;3.78;;;3.58;;
26696;SDS011;14312;52.614;13.496;2022-08-16T04:47:24;4.53;;;3.75;;
26696;SDS011;14312;52.614;13.496;2022-08-16T04:50:14;5.70;;;3.60;;
26696;SDS011;14312;52.614;13.496;2022-08-16T04:53:05;4.40;;;3.97;;
26696;SDS011;14312;52.614;13.496;2022-08-16T04:55:52;4.82;;;4.43;;
26696;SDS011;14312;52.614;13.496;2022-08-16T04:58:38;4.07;;;3.78;;
26696;SDS011;14312;52.614;13.496;2022-08-16T05:01:24;5.22;;;4.82;;
26696;SDS011;14312;52.614;13.496;2022-08-16T05:04:10;4.78;;;4.47;;
26696;SDS011;14312;52.614;13.496;2022-08-16T05:06:56;4.93;;;4.57;;
26696;SDS011;14312;52.614;13.496;2022-08-16T05:09:42;5.13;;;4.72;;
26696;SDS011;14312;52.614;13.496;2022-08-16T05:12:28;4.82;;;4.47;;
26696;SDS011;14312;52.614;13.496;2022-08-16T05:15:14;4.85;;;4.45;;
26696;SDS011;14312;52.614;13.496;2022-08-16T05:18:01;4.95;;;4.57;;
26696;SDS011;14312;52.614;13.496;2022-08-16T05:20:48;5.85;;;5.45;;
26696;SDS011;14312;52.614;13.496;2022-08-16T05:23:34;5.82;;;5.32;;
26696;SDS011;14312;52.614;13.496;2022-08-16T05:26:20;5.40;;;5.00;;
26696;SDS011;14312;52.614;13.496;2022-08-16T05:29:06;5.55;;;5.15;;
26696;SDS011;14312;52.614;13.496;2022-08-16T05:32:00;5.40;;;5.00;;
26696;SDS011;14312;52.614;13.496;2022-08-16T05:34:56;6.03;;;5.55;;
26696;SDS011;14312;52.614;13.496;2022-08-16T05:37:41;6.10;;;5.70;;
26696;SDS011;14312;52.614;13.496;2022-08-16T05:40:28;6.47;;;5.97;;
26696;SDS011;14312;52.614;13.496;2022-08-16T05:43:14;6.68;;;6.18;;
26696;SDS011;14312;52.614;13.496;2022-08-16T05:46:00;7.22;;;6.63;;
26696;SDS011;14312;52.614;13.496;2022-08-16T05:48:46;7.32;;;6.68;;
26696;SDS011;14312;52.614;13.496;2022-08-16T05:51:32;7.00;;;6.40;;
26696;SDS011;14312;52.614;13.496;2022-08-16T05:54:18;7.95;;;7.30;;
26696;SDS011;14312;52.614;13.496;2022-08-16T05:57:03;7.28;;;6.72;;
26696;SDS011;14312;52.614;13.496;2022-08-16T05:59:50;7.55;;;6.90;;
26696;SDS011;14312;52.614;13.496;2022-08-16T06:02:36;8.55;;;7.85;;
26696;SDS011;14312;52.614;13.496;2022-08-16T06:05:22;7.40;;;6.88;;
26696;SDS011;14312;52.614;13.496;2022-08-16T06:08:08;8.13;;;7.43;;
26696;SDS011;14312;52.614;13.496;2022-08-16T06:10:54;8.27;;;7.57;;
26696;SDS011;14312;52.614;13.496;2022-08-16T06:13:40;8.73;;;8.02;;
26696;SDS011;14312;52.614;13.496;2022-08-16T06:16:27;8.32;;;7.70;;
26696;SDS011;14312;52.614;13.496;2022-08-16T06:19:13;9.88;;;8.98;;
26696;SDS011;14312;52.614;13.496;2022-08-16T06:21:59;8.35;;;7.70;;
26696;SDS011;14312;52.614;13.496;2022-08-16T06:24:45;8.77;;;8.07;;
26696;SDS011;14312;52.614;13.496;2022-08-16T06:27:31;9.23;;;8.43;;
26696;SDS011;14312;52.614;13.496;2022-08-16T06:30:17;8.73;;;8.02;;
26696;SDS011;14312;52.614;13.496;2022-08-16T06:33:03;9.32;;;8.52;;
26696;SDS011;14312;52.614;13.496;2022-08-16T06:35:49;9.63;;;8.82;;
26696;SDS011;14312;52.614;13.496;2022-08-16T06:38:36;9.13;;;8.43;;
26696;SDS011;14312;52.614;13.496;2022-08-16T06:41:23;9.95;;;9.15;;
26696;SDS011;14312;52.614;13.496;2022-08-16T06:44:09;9.73;;;8.93;;
26696;SDS011;14312;52.614;13.496;2022-08-16T06:46:55;10.18;;;9.38;;
26696;SDS011;14312;52.614;13.496;2022-08-16T06:49:40;12.32;;;11.15;;
26696;SDS011;14312;52.614;13.496;2022-08-16T06:52:27;11.63;;;10.63;;
26696;SDS011;14312;52.614;13.496;2022-08-16T06:55:17;12.07;;;10.98;;
26696;SDS011;14312;52.614;13.496;2022-08-16T06:58:04;11.65;;;10.65;;
26696;SDS011;14312;52.614;13.496;2022-08-16T07:00:50;11.02;;;10.13;;
26696;SDS011;14312;52.614;13.496;2022-08-16T07:03:36;10.65;;;9.75;;
26696;SDS011;14312;52.614;13.496;2022-08-16T07:06:22;10.93;;;10.02;;
26696;SDS011;14312;52.614;13.496;2022-08-16T07:09:08;10.52;;;9.70;;
26696;SDS011;14312;52.614;13.496;2022-08-16T07:11:55;10.18;;;9.35;;
26696;SDS011;14312;52.614;13.496;2022-08-16T07:14:40;10.50;;;9.68;;
26696;SDS011;14312;52.614;13.496;2022-08-16T07:17:26;9.38;;;8.65;;
26696;SDS011;14312;52.614;13.496;2022-08-16T07:20:12;10.13;;;9.23;;
26696;SDS011;14312;52.614;13.496;2022-08-16T07:22:58;10.18;;;9.35;;
26696;SDS011;14312;52.614;13.496;2022-08-16T07:25:44;10.05;;;9.15;;
26696;SDS011;14312;52.614;13.496;2022-08-16T07:28:30;8.90;;;8.07;;
26696;SDS011;14312;52.614;13.496;2022-08-16T07:31:17;8.75;;;8.05;;
26696;SDS011;14312;52.614;13.496;2022-08-16T07:34:04;9.55;;;8.45;;
26696;SDS011;14312;52.614;13.496;2022-08-16T07:36:50;9.90;;;9.10;;
26696;SDS011;14312;52.614;13.496;2022-08-16T07:39:36;9.25;;;8.45;;
26696;SDS011;14312;52.614;13.496;2022-08-16T07:42:22;8.13;;;7.53;;
26696;SDS011;14312;52.614;13.496;2022-08-16T07:45:08;8.18;;;7.57;;
26696;SDS011;14312;52.614;13.496;2022-08-16T07:47:55;8.75;;;8.05;;
26696;SDS011;14312;52.614;13.496;2022-08-16T07:50:41;8.48;;;7.88;;
26696;SDS011;14312;52.614;13.496;2022-08-16T07:53:28;7.18;;;6.55;;
26696;SDS011;14312;52.614;13.496;2022-08-16T07:56:17;7.82;;;7.22;;
26696;SDS011;14312;52.614;13.496;2022-08-16T07:59:03;9.18;;;8.38;;
26696;SDS011;14312;52.614;13.496;2022-08-16T08:01:50;8.10;;;7.50;;
26696;SDS011;14312;52.614;13.496;2022-08-16T08:04:37;8.48;;;7.78;;
26696;SDS011;14312;52.614;13.496;2022-08-16T08:07:22;8.13;;;7.53;;
26696;SDS011;14312;52.614;13.496;2022-08-16T08:10:09;7.68;;;7.07;;
26696;SDS011;14312;52.614;13.496;2022-08-16T08:12:55;7.07;;;6.57;;
26696;SDS011;14312;52.614;13.496;2022-08-16T08:15:42;8.27;;;7.68;;
26696;SDS011;14312;52.614;13.496;2022-08-16T08:18:29;7.13;;;6.57;;
26696;SDS011;14312;52.614;13.496;2022-08-16T08:21:16;7.70;;;7.10;;
26696;SDS011;14312;52.614;13.496;2022-08-16T08:24:03;8.10;;;7.50;;
26696;SDS011;14312;52.614;13.496;2022-08-16T08:26:49;8.48;;;7.78;;
26696;SDS011;14312;52.614;13.496;2022-08-16T08:29:36;8.13;;;7.53;;
26696;SDS011;14312;52.614;13.496;2022-08-16T08:32:22;8.63;;;8.02;;
26696;SDS011;14312;52.614;13.496;2022-08-16T08:35:11;8.35;;;7.75;;
26696;SDS011;14312;52.614;13.496;2022-08-16T08:37:57;8.68;;;7.97;;
26696;SDS011;14312;52.614;13.496;2022-08-16T08:40:43;8.00;;;7.40;;
26696;SDS011;14312;52.614;13.496;2022-08-16T08:43:29;7.40;;;6.90;;
26696;SDS011;14312;52.614;13.496;2022-08-16T08:46:15;9.43;;;8.73;;
26696;SDS011;14312;52.614;13.496;2022-08-16T08:49:01;9.15;;;8.35;;
26696;SDS011;14312;52.614;13.496;2022-08-16T08:51:47;8.10;;;7.50;;
26696;SDS011;14312;52.614;13.496;2022-08-16T08:54:33;9.05;;;8.35;;
26696;SDS011;14312;52.614;13.496;2022-08-16T08:57:19;9.48;;;8.73;;
26696;SDS011;14312;52.614;13.496;2022-08-16T09:00:05;8.13;;;7.43;;
26696;SDS011;14312;52.614;13.496;2022-08-16T09:02:52;8.15;;;7.55;;
26696;SDS011;14312;52.614;13.496;2022-08-16T09:05:38;8.52;;;7.72;;
26696;SDS011;14312;52.614;13.496;2022-08-16T09:08:24;8.50;;;7.80;;
26696;SDS011;14312;52.614;13.496;2022-08-16T09:11:11;7.40;;;6.88;;
26696;SDS011;14312;52.614;13.496;2022-08-16T09:13:57;7.22;;;6.72;;
26696;SDS011;14312;52.614;13.496;2022-08-16T09:16:42;7.55;;;6.95;;
26696;SDS011;14312;52.614;13.496;2022-08-16T09:19:28;6.65;;;6.15;;
26696;SDS011;14312;52.614;13.496;2022-08-16T09:22:14;7.32;;;6.72;;
26696;SDS011;14312;52.614;13.496;2022-08-16T09:25:01;7.05;;;6.47;;
26696;SDS011;14312;52.614;13.496;2022-08-16T09:27:47;8.02;;;7.43;;
26696;SDS011;14312;52.614;13.496;2022-08-16T09:30:34;7.22;;;6.63;;
26696;SDS011;14312;52.614;13.496;2022-08-16T09:33:20;7.95;;;7.25;;
26696;SDS011;14312;52.614;13.496;2022-08-16T09:36:06;6.75;;;6.25;;
26696;SDS011;14312;52.614;13.496;2022-08-16T09:38:52;6.63;;;6.13;;
26696;SDS011;14312;52.614;13.496;2022-08-16T09:41:38;6.28;;;5.88;;
26696;SDS011;14312;52.614;13.496;2022-08-16T09:44:25;7.03;;;6.53;;
26696;SDS011;14312;52.614;13.496;2022-08-16T09:47:11;7.53;;;6.95;;
26696;SDS011;14312;52.614;13.496;2022-08-16T09:49:57;7.47;;;6.88;;
26696;SDS011;14312;52.614;13.496;2022-08-16T09:52:43;7.88;;;7.20;;
26696;SDS011;14312;52.614;13.496;2022-08-16T09:55:29;6.95;;;6.45;;
26696;SDS011;14312;52.614;13.496;2022-08-16T09:58:15;6.68;;;6.13;;
26696;SDS011;14312;52.614;13.496;2022-08-16T10:01:07;6.72;;;6.13;;
26696;SDS011;14312;52.614;13.496;2022-08-16T10:03:53;6.47;;;5.97;;
26696;SDS011;14312;52.614;13.496;2022-08-16T10:06:40;7.03;;;6.47;;
26696;SDS011;14312;52.614;13.496;2022-08-16T10:09:26;7.13;;;6.55;;
26696;SDS011;14312;52.614;13.496;2022-08-16T10:12:13;6.10;;;5.50;;
26696;SDS011;14312;52.614;13.496;2022-08-16T10:15:18;5.85;;;5.35;;
26696;SDS011;14312;52.614;13.496;2022-08-16T10:18:05;5.78;;;5.38;;
26696;SDS011;14312;52.614;13.496;2022-08-16T10:20:53;7.85;;;7.07;;
26696;SDS011;14312;52.614;13.496;2022-08-16T10:23:41;8.38;;;7.57;;
26696;SDS011;14312;52.614;13.496;2022-08-16T10:26:28;6.82;;;6.30;;
26696;SDS011;14312;52.614;13.496;2022-08-16T10:29:15;6.70;;;6.20;;
26696;SDS011;14312;52.614;13.496;2022-08-16T10:32:01;5.63;;;5.22;;
26696;SDS011;14312;52.614;13.496;2022-08-16T10:34:47;6.85;;;6.35;;
26696;SDS011;14312;52.614;13.496;2022-08-16T10:37:33;6.00;;;5.50;;
26696;SDS011;14312;52.614;13.496;2022-08-16T10:40:19;6.75;;;6.25;;
26696;SDS011;14312;52.614;13.496;2022-08-16T10:43:06;6.00;;;5.60;;
26696;SDS011;14312;52.614;13.496;2022-08-16T10:45:51;6.70;;;6.20;;
26696;SDS011;14312;52.614;13.496;2022-08-16T10:48:38;5.90;;;5.50;;
26696;SDS011;14312;52.614;13.496;2022-08-16T10:51:26;5.60;;;5.20;;
26696;SDS011;14312;52.614;13.496;2022-08-16T10:54:12;5.07;;;4.68;;
26696;SDS011;14312;52.614;13.496;2022-08-16T10:57:05;6.10;;;5.55;;
26696;SDS011;14312;52.614;13.496;2022-08-16T10:59:51;6.07;;;5.68;;
26696;SDS011;14312;52.614;13.496;2022-08-16T11:02:38;6.60;;;6.10;;
26696;SDS011;14312;52.614;13.496;2022-08-16T11:05:27;5.82;;;5.32;;
26696;SDS011;14312;52.614;13.496;2022-08-16T11:08:18;6.60;;;6.10;;
26696;SDS011;14312;52.614;13.496;2022-08-16T11:11:05;7.18;;;6.63;;
26696;SDS011;14312;52.614;13.496;2022-08-16T11:13:51;6.57;;;6.07;;
26696;SDS011;14312;52.614;13.496;2022-08-16T11:16:37;5.68;;;5.28;;
26696;SDS011;14312;52.614;13.496;2022-08-16T11:19:23;5.88;;;5.38;;
26696;SDS011;14312;52.614;13.496;2022-08-16T11:22:10;5.82;;;5.18;;
26696;SDS011;14312;52.614;13.496;2022-08-16T11:24:55;6.13;;;5.63;;
26696;SDS011;14312;52.614;13.496;2022-08-16T11:27:41;4.93;;;4.55;;
26696;SDS011;14312;52.614;13.496;2022-08-16T11:30:28;5.20;;;4.80;;
26696;SDS011;14312;52.614;13.496;2022-08-16T11:33:15;4.32;;;4.03;;
26696;SDS011;14312;52.614;13.496;2022-08-16T11:36:01;5.40;;;4.90;;
26696;SDS011;14312;52.614;13.496;2022-08-16T11:38:47;5.85;;;5.35;;
26696;SDS011;14312;52.614;13.496;2022-08-16T11:41:33;5.28;;;4.93;;
26696;SDS011;14312;52.614;13.496;2022-08-16T11:44:23;5.40;;;4.82;;
26696;SDS011;14312;52.614;13.496;2022-08-16T11:47:09;4.90;;;4.35;;
26696;SDS011;14312;52.614;13.496;2022-08-16T11:49:55;5.10;;;4.70;;
26696;SDS011;14312;52.614;13.496;2022-08-16T11:52:41;5.70;;;5.20;;
26696;SDS011;14312;52.614;13.496;2022-08-16T11:55:27;4.78;;;4.38;;
26696;SDS011;14312;52.614;13.496;2022-08-16T11:58:12;5.35;;;4.95;;
26696;SDS011;14312;52.614;13.496;2022-08-16T12:00:59;5.57;;;5.18;;
26696;SDS011;14312;52.614;13.496;2022-08-16T12:03:45;5.15;;;4.85;;
26696;SDS011;14312;52.614;13.496;2022-08-16T12:06:31;5.10;;;4.70;;
26696;SDS011;14312;52.614;13.496;2022-08-16T12:09:17;5.20;;;4.80;;
26696;SDS011;14312;52.614;13.496;2022-08-16T12:12:03;5.57;;;5.07;;
26696;SDS011;14312;52.614;13.496;2022-08-16T12:14:49;5.22;;;4.82;;
26696;SDS011;14312;52.614;13.496;2022-08-16T12:17:36;4.85;;;4.47;;
26696;SDS011;14312;52.614;13.496;2022-08-16T12:20:25;4.78;;;4.32;;
26696;SDS011;14312;52.614;13.496;2022-08-16T12:23:13;4.53;;;4.22;;
26696;SDS011;14312;52.614;13.496;2022-08-16T12:25:59;5.68;;;5.18;;
26696;SDS011;14312;52.614;13.496;2022-08-16T12:28:45;4.13;;;3.83;;
26696;SDS011;14312;52.614;13.496;2022-08-16T12:31:31;4.75;;;4.45;;
26696;SDS011;14312;52.614;13.496;2022-08-16T12:34:17;4.80;;;4.50;;
26696;SDS011;14312;52.614;13.496;2022-08-16T12:37:03;4.60;;;4.30;;
26696;SDS011;14312;52.614;13.496;2022-08-16T12:39:51;5.30;;;4.88;;
26696;SDS011;14312;52.614;13.496;2022-08-16T12:42:39;4.70;;;4.40;;
26696;SDS011;14312;52.614;13.496;2022-08-16T12:45:27;4.90;;;4.60;;
26696;SDS011;14312;52.614;13.496;2022-08-16T12:48:15;5.15;;;4.82;;
26696;SDS011;14312;52.614;13.496;2022-08-16T12:51:25;4.90;;;4.53;;
26696;SDS011;14312;52.614;13.496;2022-08-16T12:54:15;4.97;;;4.57;;
26696;SDS011;14312;52.614;13.496;2022-08-16T12:57:01;4.47;;;4.10;;
26696;SDS011;14312;52.614;13.496;2022-08-16T12:59:47;5.20;;;4.80;;
26696;SDS011;14312;52.614;13.496;2022-08-16T13:02:32;4.75;;;4.45;;
26696;SDS011;14312;52.614;13.496;2022-08-16T13:05:18;5.28;;;4.78;;
26696;SDS011;14312;52.614;13.496;2022-08-16T13:08:04;5.38;;;4.97;;
26696;SDS011;14312;52.614;13.496;2022-08-16T13:10:51;5.22;;;4.82;;
26696;SDS011;14312;52.614;13.496;2022-08-16T13:13:39;5.28;;;4.88;;
26696;SDS011;14312;52.614;13.496;2022-08-16T13:16:24;5.55;;;5.05;;
26696;SDS011;14312;52.614;13.496;2022-08-16T13:19:10;5.53;;;5.13;;
26696;SDS011;14312;52.614;13.496;2022-08-16T13:21:56;5.50;;;5.10;;
26696;SDS011;14312;52.614;13.496;2022-08-16T13:24:42;5.53;;;5.13;;
26696;SDS011;14312;52.614;13.496;2022-08-16T13:27:28;4.72;;;4.32;;
26696;SDS011;14312;52.614;13.496;2022-08-16T13:30:14;4.72;;;4.32;;
26696;SDS011;14312;52.614;13.496;2022-08-16T13:33:00;4.50;;;4.13;;
26696;SDS011;14312;52.614;13.496;2022-08-16T13:35:47;4.15;;;3.85;;
26696;SDS011;14312;52.614;13.496;2022-08-16T13:38:34;4.47;;;4.18;;
26696;SDS011;14312;52.614;13.496;2022-08-16T13:41:21;4.32;;;4.03;;
26696;SDS011;14312;52.614;13.496;2022-08-16T13:44:06;5.63;;;4.50;;
26696;SDS011;14312;52.614;13.496;2022-08-16T13:46:52;4.60;;;4.30;;
26696;SDS011;14312;52.614;13.496;2022-08-16T13:49:38;5.38;;;4.97;;
26696;SDS011;14312;52.614;13.496;2022-08-16T13:52:25;4.72;;;4.38;;
26696;SDS011;14312;52.614;13.496;2022-08-16T13:55:12;4.57;;;4.28;;
26696;SDS011;14312;52.614;13.496;2022-08-16T13:57:57;4.70;;;4.30;;
26696;SDS011;14312;52.614;13.496;2022-08-16T14:00:43;5.25;;;4.80;;
26696;SDS011;14312;52.614;13.496;2022-08-16T14:03:29;5.38;;;4.90;;
26696;SDS011;14312;52.614;13.496;2022-08-16T14:06:16;4.22;;;3.92;;
26696;SDS011;14312;52.614;13.496;2022-08-16T14:09:02;4.80;;;4.35;;
26696;SDS011;14312;52.614;13.496;2022-08-16T14:11:48;3.92;;;3.70;;
26696;SDS011;14312;52.614;13.496;2022-08-16T14:14:34;4.25;;;3.85;;
26696;SDS011;14312;52.614;13.496;2022-08-16T14:17:20;4.07;;;3.78;;
26696;SDS011;14312;52.614;13.496;2022-08-16T14:20:07;4.07;;;3.78;;
26696;SDS011;14312;52.614;13.496;2022-08-16T14:22:53;4.60;;;3.78;;
26696;SDS011;14312;52.614;13.496;2022-08-16T14:25:40;4.38;;;3.97;;
26696;SDS011;14312;52.614;13.496;2022-08-16T14:28:26;3.97;;;3.67;;
26696;SDS011;14312;52.614;13.496;2022-08-16T14:31:12;4.70;;;4.30;;
26696;SDS011;14312;52.614;13.496;2022-08-16T14:33:57;4.00;;;3.70;;
26696;SDS011;14312;52.614;13.496;2022-08-16T14:36:43;3.65;;;3.35;;
26696;SDS011;14312;52.614;13.496;2022-08-16T14:39:30;3.67;;;3.38;;
26696;SDS011;14312;52.614;13.496;2022-08-16T14:42:19;3.78;;;3.58;;
26696;SDS011;14312;52.614;13.496;2022-08-16T14:45:06;3.35;;;3.10;;
26696;SDS011;14312;52.614;13.496;2022-08-16T14:47:54;4.25;;;3.95;;
26696;SDS011;14312;52.614;13.496;2022-08-16T14:50:40;3.58;;;3.38;;
26696;SDS011;14312;52.614;13.496;2022-08-16T14:53:26;3.90;;;3.60;;
26696;SDS011;14312;52.614;13.496;2022-08-16T14:56:11;3.38;;;3.17;;
26696;SDS011;14312;52.614;13.496;2022-08-16T14:58:57;4.25;;;3.90;;
26696;SDS011;14312;52.614;13.496;2022-08-16T15:01:43;3.45;;;3.25;;
26696;SDS011;14312;52.614;13.496;2022-08-16T15:04:31;4.82;;;3.45;;
26696;SDS011;14312;52.614;13.496;2022-08-16T15:07:18;3.70;;;3.40;;
26696;SDS011;14312;52.614;13.496;2022-08-16T15:10:06;3.85;;;3.53;;
26696;SDS011;14312;52.614;13.496;2022-08-16T15:12:53;4.10;;;3.80;;
26696;SDS011;14312;52.614;13.496;2022-08-16T15:15:40;3.70;;;3.50;;
26696;SDS011;14312;52.614;13.496;2022-08-16T15:18:25;3.90;;;3.60;;
26696;SDS011;14312;52.614;13.496;2022-08-16T15:21:12;3.45;;;3.25;;
26696;SDS011;14312;52.614;13.496;2022-08-16T15:23:58;4.22;;;3.92;;
26696;SDS011;14312;52.614;13.496;2022-08-16T15:26:44;3.97;;;3.67;;
26696;SDS011;14312;52.614;13.496;2022-08-16T15:29:30;3.63;;;3.38;;
26696;SDS011;14312;52.614;13.496;2022-08-16T15:32:16;3.80;;;3.55;;
26696;SDS011;14312;52.614;13.496;2022-08-16T15:35:02;3.50;;;3.20;;
26696;SDS011;14312;52.614;13.496;2022-08-16T15:37:49;3.30;;;3.10;;
26696;SDS011;14312;52.614;13.496;2022-08-16T15:40:37;3.70;;;3.50;;
26696;SDS011;14312;52.614;13.496;2022-08-16T15:43:23;3.22;;;3.03;;
26696;SDS011;14312;52.614;13.496;2022-08-16T15:46:09;3.30;;;3.10;;
26696;SDS011;14312;52.614;13.496;2022-08-16T15:49:07;3.45;;;3.25;;
26696;SDS011;14312;52.614;13.496;2022-08-16T15:51:53;2.88;;;2.67;;
26696;SDS011;14312;52.614;13.496;2022-08-16T15:54:40;2.92;;;2.65;;
26696;SDS011;14312;52.614;13.496;2022-08-16T15:57:27;2.90;;;2.70;;
26696;SDS011;14312;52.614;13.496;2022-08-16T16:00:14;3.08;;;2.88;;
26696;SDS011;14312;52.614;13.496;2022-08-16T16:06:00;3.22;;;3.03;;
26696;SDS011;14312;52.614;13.496;2022-08-16T16:08:48;3.50;;;3.20;;
26696;SDS011;14312;52.614;13.496;2022-08-16T16:11:34;3.28;;;2.97;;
26696;SDS011;14312;52.614;13.496;2022-08-16T16:14:20;2.97;;;2.60;;
26696;SDS011;14312;52.614;13.496;2022-08-16T16:17:06;5.72;;;3.15;;
26696;SDS011;14312;52.614;13.496;2022-08-16T16:19:52;3.15;;;2.95;;
26696;SDS011;14312;52.614;13.496;2022-08-16T16:22:38;3.25;;;3.00;;
26696;SDS011;14312;52.614;13.496;2022-08-16T16:25:24;3.40;;;3.10;;
26696;SDS011;14312;52.614;13.496;2022-08-16T16:28:13;3.30;;;3.10;;
26696;SDS011;14312;52.614;13.496;2022-08-16T16:31:04;3.60;;;3.30;;
26696;SDS011;14312;52.614;13.496;2022-08-16T16:33:52;3.13;;;2.83;;
26696;SDS011;14312;52.614;13.496;2022-08-16T16:36:42;3.40;;;3.10;;